CA-0493 weather

Foxden Farms
Ontario, Canada

Public forecast

Using degrees Celsius for public forecast. Weather courtesy of forecast.io.

METAR (pilot weather report)

Closest report is Buttonville Municipal Airport, 6.6 nm (12.1 km) SSE. Retrieved 2018/11/17 18:27 UTC (16 minutes ago):

CYKZ 171827Z 32010KT 15SM FEW018 OVC026 00/M02 A3016 RMK SC1SC7 SLP222

TAF (pilot weather forecast)

Closest forecast is Buttonville Municipal Airport, 6.6 nm (12.1 km) SSE. Retrieved 2018/11/17 18:42 UTC (1 minute ago):

TAF CYKZ 171738Z 1718/1806 27010G20KT P6SM BKN025 TEMPO 1718/1719 6SM -SHRASN OVC020 FM171900 33012KT P6SM OVC025 TEMPO 1719/1723 5SM -SHSN OVC020 FM172300 32010KT P6SM BKN030 FM180200 VRB03KT P6SM SCT030 RMK NXT FCST BY 180000Z